Time;durP1;ratioP1;P1;durP2;ratioP2;P2;SDS_P1;SDS_P2;PMS_P1;PMS_P2;Temp;Humidity;BMP_temperature;BMP_pressure;BME280_temperature;BME280_humidity;BME280_pressure;Samples;Min_cycle;Max_cycle;Signal;HPM_P1;HPM_P2
2022/09/12 04:01:20;;;;;;;12.63;7.47;;;13.20;99.90;;;;;;5597137;23;20507;-74
2022/09/12 04:03:48;;;;;;;11.10;8.77;;;13.20;99.90;;;;;;4985746;28;20499;-74
2022/09/12 04:06:18;;;;;;;10.30;7.77;;;13.20;99.90;;;;;;4985306;28;20746;-74
2022/09/12 04:08:47;;;;;;;10.23;8.50;;;13.20;99.90;;;;;;4985385;28;20467;-73
2022/09/12 04:11:15;;;;;;;9.20;7.43;;;13.20;99.90;;;;;;4985576;28;21041;-74
2022/09/12 04:13:44;;;;;;;9.97;7.53;;;13.10;99.90;;;;;;4985685;28;20463;-73
2022/09/12 04:16:11;;;;;;;10.17;8.10;;;13.10;99.90;;;;;;4985261;28;20459;-73
2022/09/12 04:18:39;;;;;;;11.37;8.80;;;13.00;99.90;;;;;;4985923;28;20456;-74
2022/09/12 04:21:07;;;;;;;8.83;7.90;;;13.10;99.90;;;;;;4985714;28;20484;-74
2022/09/12 04:23:34;;;;;;;8.93;7.37;;;13.00;99.90;;;;;;4985326;28;20491;-74
2022/09/12 04:26:02;;;;;;;9.00;7.93;;;13.00;99.90;;;;;;4985435;28;20470;-73
2022/09/12 04:28:31;;;;;;;10.43;8.10;;;13.00;99.90;;;;;;4985519;28;20467;-74
2022/09/12 04:31:02;;;;;;;9.57;7.90;;;13.10;99.90;;;;;;4985438;28;20502;-75
2022/09/12 04:33:29;;;;;;;10.40;8.47;;;13.00;99.90;;;;;;4985641;28;20443;-74
2022/09/12 04:36:05;;;;;;;10.30;9.27;;;13.00;99.90;;;;;;4985028;28;20862;-74
2022/09/12 04:38:32;;;;;;;8.87;7.40;;;13.00;99.90;;;;;;4987343;28;20655;-74
2022/09/12 04:40:59;;;;;;;10.93;8.60;;;13.00;99.90;;;;;;4989295;28;20490;-74
2022/09/12 04:43:26;;;;;;;8.27;7.37;;;13.00;99.90;;;;;;4989141;28;20596;-73
2022/09/12 04:45:53;;;;;;;10.07;8.13;;;13.00;99.90;;;;;;4988611;28;20920;-74
2022/09/12 04:48:19;;;;;;;11.47;8.20;;;13.00;99.90;;;;;;4988833;28;20955;-73
2022/09/12 04:50:46;;;;;;;8.80;7.90;;;13.00;99.90;;;;;;4989068;28;20487;-73
2022/09/12 04:53:14;;;;;;;11.23;7.70;;;12.90;99.90;;;;;;4989113;28;20463;-74
2022/09/12 04:55:41;;;;;;;9.73;7.97;;;12.90;99.90;;;;;;4988556;28;20460;-75
2022/09/12 04:58:08;;;;;;;10.87;8.50;;;12.90;99.90;;;;;;4989064;28;20806;-74
2022/09/12 05:00:34;;;;;;;9.77;7.73;;;12.90;99.90;;;;;;4987532;28;20491;-75
2022/09/12 05:03:01;;;;;;;11.50;8.30;;;12.90;99.90;;;;;;4989078;28;20478;-75
2022/09/12 05:05:28;;;;;;;9.60;7.53;;;12.90;99.90;;;;;;4988348;28;20455;-74
2022/09/12 05:07:55;;;;;;;8.60;7.60;;;12.90;99.90;;;;;;4989125;28;20474;-75
2022/09/12 05:10:23;;;;;;;9.70;7.50;;;12.90;99.90;;;;;;4988888;28;20467;-68
2022/09/12 05:12:50;;;;;;;12.17;8.07;;;12.80;99.90;;;;;;4989002;28;20460;-67
2022/09/12 05:15:16;;;;;;;9.90;8.73;;;12.80;99.90;;;;;;4988453;28;20459;-67
2022/09/12 05:17:43;;;;;;;11.20;8.03;;;12.70;99.90;;;;;;4989532;28;20464;-68
2022/09/12 05:20:11;;;;;;;19.93;8.20;;;12.70;99.90;;;;;;4988713;28;20444;-67
2022/09/12 05:22:38;;;;;;;8.73;7.90;;;12.60;99.90;;;;;;4988840;28;20511;-67
2022/09/12 05:25:06;;;;;;;10.70;8.30;;;12.70;99.90;;;;;;4988010;28;20464;-67
2022/09/12 05:27:34;;;;;;;7.97;7.13;;;12.60;99.90;;;;;;4988478;28;20823;-67
2022/09/12 05:30:00;;;;;;;10.00;8.47;;;12.60;99.90;;;;;;4988519;28;20456;-77
2022/09/12 05:32:32;;;;;;;10.93;9.10;;;12.60;99.90;;;;;;4988829;28;20484;-78
2022/09/12 05:34:59;;;;;;;11.93;8.97;;;12.60;99.90;;;;;;4988245;28;20451;-76
2022/09/12 05:37:25;;;;;;;12.23;8.20;;;12.60;99.90;;;;;;4988345;28;20455;-76
2022/09/12 05:39:52;;;;;;;11.50;9.03;;;12.60;99.90;;;;;;4988424;28;20471;-76
2022/09/12 05:42:19;;;;;;;17.07;9.00;;;12.60;99.90;;;;;;4988135;28;20500;-76
2022/09/12 05:44:47;;;;;;;10.40;8.73;;;12.60;99.90;;;;;;4987486;28;20502;-76
2022/09/12 05:47:15;;;;;;;11.20;8.90;;;12.60;99.90;;;;;;4988408;28;20494;-76
2022/09/12 05:49:44;;;;;;;11.67;9.70;;;12.60;99.90;;;;;;4987865;28;20463;-76
2022/09/12 05:52:11;;;;;;;11.43;9.20;;;12.60;99.90;;;;;;4988092;28;20493;-76
2022/09/12 05:54:38;;;;;;;15.80;11.10;;;12.60;99.90;;;;;;4987501;28;20866;-76
2022/09/12 05:57:05;;;;;;;13.50;9.87;;;12.60;99.90;;;;;;4987827;28;20459;-76
2022/09/12 05:59:32;;;;;;;11.00;9.27;;;12.60;99.90;;;;;;4988086;28;20476;-76
2022/09/12 06:02:00;;;;;;;12.37;10.57;;;12.60;99.90;;;;;;4988115;28;20499;-75
2022/09/12 06:04:27;;;;;;;12.13;9.73;;;12.60;99.90;;;;;;4989289;28;20495;-75
2022/09/12 06:06:54;;;;;;;12.83;9.63;;;12.70;99.90;;;;;;4988327;28;20460;-75
2022/09/12 06:09:21;;;;;;;12.20;9.10;;;12.70;99.90;;;;;;4988214;28;20466;-75
2022/09/12 06:11:48;;;;;;;18.00;9.97;;;12.70;99.90;;;;;;4987885;28;20483;-75
2022/09/12 06:14:16;;;;;;;10.30;9.23;;;12.70;99.90;;;;;;4987446;28;20456;-75
2022/09/12 06:16:43;;;;;;;17.13;10.03;;;12.70;99.90;;;;;;4987905;28;20967;-75
2022/09/12 06:19:15;;;;;;;12.03;9.50;;;12.80;99.90;;;;;;4987606;28;20464;-75
2022/09/12 06:21:43;;;;;;;12.13;9.57;;;12.80;99.90;;;;;;4987720;28;20534;-76
2022/09/12 06:24:09;;;;;;;11.97;9.53;;;12.80;99.90;;;;;;4986599;28;21067;-76
2022/09/12 06:26:37;;;;;;;13.43;10.30;;;12.80;99.90;;;;;;4987680;28;20455;-76
2022/09/12 06:29:03;;;;;;;12.90;9.60;;;12.90;99.90;;;;;;4987638;28;21275;-76
2022/09/12 06:31:32;;;;;;;14.47;10.67;;;12.90;99.90;;;;;;4987449;28;20995;-76
2022/09/12 06:34:01;;;;;;;14.27;10.20;;;12.90;99.90;;;;;;4988381;28;20470;-76
2022/09/12 06:36:31;;;;;;;13.00;9.83;;;13.00;99.90;;;;;;4989747;28;20460;-75
2022/09/12 06:39:00;;;;;;;12.00;9.90;;;13.00;99.90;;;;;;4987745;28;20502;-75
2022/09/12 06:41:28;;;;;;;11.63;10.00;;;13.00;99.90;;;;;;4987097;28;20831;-75
2022/09/12 06:43:55;;;;;;;15.93;10.90;;;13.00;99.90;;;;;;4987239;28;20497;-76
2022/09/12 06:46:22;;;;;;;15.70;10.83;;;13.10;99.90;;;;;;4987057;28;20463;-76
2022/09/12 06:48:49;;;;;;;21.20;12.57;;;13.00;99.90;;;;;;4987381;28;20459;-76
2022/09/12 06:51:18;;;;;;;12.30;10.20;;;12.90;99.90;;;;;;4986746;28;20562;-76
2022/09/12 06:53:48;;;;;;;14.30;11.57;;;12.90;99.90;;;;;;4988162;28;20487;-76
2022/09/12 06:56:17;;;;;;;11.70;10.23;;;12.90;99.90;;;;;;4986195;28;20948;-76
2022/09/12 06:58:44;;;;;;;14.40;10.70;;;13.00;99.90;;;;;;4987028;28;21181;-76
2022/09/12 07:01:14;;;;;;;12.37;10.90;;;13.10;99.90;;;;;;4985189;28;20491;-76
2022/09/12 07:03:41;;;;;;;13.30;11.10;;;13.20;99.90;;;;;;4987833;28;20495;-76
2022/09/12 07:06:10;;;;;;;13.50;10.50;;;13.20;99.90;;;;;;4988592;28;20940;-75
2022/09/12 07:08:38;;;;;;;12.80;11.33;;;13.20;99.90;;;;;;4988194;28;20463;-76
2022/09/12 07:11:14;;;;;;;13.43;10.33;;;13.30;99.90;;;;;;4986948;28;20480;-76
2022/09/12 07:13:42;;;;;;;13.00;11.03;;;13.40;99.90;;;;;;4986586;28;20452;-76
2022/09/12 07:16:10;;;;;;;12.30;10.53;;;13.40;99.90;;;;;;4986076;28;20474;-76
2022/09/12 07:18:38;;;;;;;11.50;10.20;;;13.50;99.90;;;;;;4987559;28;20463;-76
2022/09/12 07:21:07;;;;;;;12.87;10.50;;;13.50;99.90;;;;;;4987711;28;21125;-76
2022/09/12 07:23:34;;;;;;;14.40;12.13;;;13.60;99.90;;;;;;4986264;28;21062;-76
2022/09/12 07:26:02;;;;;;;19.53;11.77;;;13.60;99.90;;;;;;4985251;28;20459;-77
2022/09/12 07:28:32;;;;;;;14.63;11.83;;;13.70;99.90;;;;;;4984825;28;20475;-76
2022/09/12 07:31:05;;;;;;;13.73;12.27;;;13.80;99.90;;;;;;4985562;28;20490;-76
2022/09/12 07:33:31;;;;;;;13.80;12.07;;;13.80;99.90;;;;;;4986094;28;20874;-76
2022/09/12 07:36:02;;;;;;;13.80;12.23;;;13.90;99.90;;;;;;4985883;28;20463;-77
2022/09/12 07:38:29;;;;;;;17.70;12.80;;;14.00;99.90;;;;;;4987061;28;20447;-76
2022/09/12 07:40:55;;;;;;;15.23;12.67;;;14.10;99.90;;;;;;4986044;28;20519;-77
2022/09/12 07:43:22;;;;;;;13.97;11.13;;;14.20;99.90;;;;;;4985941;28;20754;-75
2022/09/12 07:45:55;;;;;;;10.47;9.37;;;14.20;99.90;;;;;;4985714;28;20830;-75
2022/09/12 07:48:21;;;;;;;12.17;10.90;;;14.40;99.90;;;;;;4986053;28;20923;-75
2022/09/12 07:50:57;;;;;;;12.50;10.10;;;14.50;99.90;;;;;;4985923;28;20534;-75
2022/09/12 07:53:24;;;;;;;12.03;9.27;;;14.60;99.90;;;;;;4985988;28;20443;-75
2022/09/12 07:55:53;;;;;;;11.50;10.30;;;14.70;99.90;;;;;;4984706;28;20467;-75
2022/09/12 07:58:20;;;;;;;11.27;9.73;;;14.80;99.90;;;;;;4986146;28;20547;-75
2022/09/12 08:00:47;;;;;;;9.83;8.83;;;15.00;99.90;;;;;;4985816;28;20491;-75
2022/09/12 08:03:15;;;;;;;12.07;9.17;;;15.10;99.90;;;;;;4985905;28;20460;-75
2022/09/12 08:05:42;;;;;;;10.33;9.27;;;15.20;99.90;;;;;;4985054;28;20491;-75
2022/09/12 08:08:09;;;;;;;10.73;9.63;;;15.30;99.90;;;;;;4985765;28;20582;-75
2022/09/12 08:10:36;;;;;;;13.57;9.30;;;15.50;99.90;;;;;;4985709;28;21061;-75
2022/09/12 08:13:04;;;;;;;11.23;9.37;;;15.70;99.90;;;;;;4988306;28;20458;-76
2022/09/12 08:15:31;;;;;;;10.90;9.70;;;15.80;99.90;;;;;;4989344;28;20461;-76
2022/09/12 08:17:58;;;;;;;10.43;8.17;;;15.90;99.90;;;;;;4990347;28;20462;-76
2022/09/12 08:20:26;;;;;;;9.80;8.80;;;16.10;99.90;;;;;;4990202;28;20466;-75
2022/09/12 08:22:53;;;;;;;9.43;8.43;;;16.20;99.90;;;;;;4989816;28;20973;-76
2022/09/12 08:25:20;;;;;;;8.03;7.20;;;16.30;99.90;;;;;;4989104;28;20495;-75
2022/09/12 08:27:47;;;;;;;8.63;7.73;;;16.40;99.90;;;;;;4990388;28;20949;-76
2022/09/12 08:30:14;;;;;;;8.90;7.87;;;16.60;99.90;;;;;;4990423;28;20464;-76
2022/09/12 08:32:41;;;;;;;9.17;7.73;;;16.80;99.90;;;;;;4989585;28;20451;-76
2022/09/12 08:35:08;;;;;;;8.83;7.60;;;17.00;99.90;;;;;;4989033;28;20470;-75
2022/09/12 08:37:36;;;;;;;9.60;7.67;;;17.40;99.90;;;;;;4989248;28;20451;-77
2022/09/12 08:40:07;;;;;;;8.23;7.27;;;17.50;99.90;;;;;;4989809;28;20455;-75
2022/09/12 08:42:49;;;;;;;8.27;7.17;;;17.90;99.90;;;;;;4989491;28;20511;-75
2022/09/12 08:45:22;;;;;;;8.70;6.90;;;18.10;99.90;;;;;;4988679;28;20512;-75
2022/09/12 08:47:50;;;;;;;9.20;7.43;;;18.20;99.90;;;;;;4989471;28;20464;-75
2022/09/12 08:50:19;;;;;;;7.80;7.00;;;18.40;99.90;;;;;;4989393;28;20574;-75
2022/09/12 08:52:54;;;;;;;8.50;6.20;;;18.50;99.90;;;;;;4989458;28;20470;-75
2022/09/12 08:55:33;;;;;;;7.23;6.40;;;18.60;99.90;;;;;;4989054;28;20614;-75
2022/09/12 08:58:01;;;;;;;5.40;4.90;;;18.70;99.90;;;;;;4989577;28;20488;-75
2022/09/12 09:00:40;;;;;;;5.70;5.20;;;19.00;99.90;;;;;;4989047;28;20455;-75
2022/09/12 09:03:32;;;;;;;4.57;4.17;;;19.70;99.90;;;;;;4989370;28;20481;-75
2022/09/12 09:06:06;;;;;;;7.90;4.70;;;20.20;99.90;;;;;;4988626;28;20479;-75
2022/09/12 09:08:46;;;;;;;4.73;4.30;;;20.60;99.90;;;;;;4989092;28;20454;-75
2022/09/12 09:11:30;;;;;;;5.47;4.43;;;20.80;99.90;;;;;;4988680;28;20521;-75
2022/09/12 09:16:56;;;;;;;5.20;4.60;;;21.20;99.90;;;;;;4988689;28;20419;-75
2022/09/12 09:19:28;;;;;;;4.40;4.00;;;21.40;99.90;;;;;;4989068;28;20826;-75
2022/09/12 09:21:58;;;;;;;4.63;3.70;;;21.90;99.90;;;;;;4988791;28;20476;-76
2022/09/12 09:24:33;;;;;;;3.50;3.20;;;22.70;99.90;;;;;;4987070;28;20855;-76
2022/09/12 09:27:04;;;;;;;2.97;2.70;;;23.40;99.90;;;;;;4988777;28;21065;-76
2022/09/12 09:29:36;;;;;;;6.33;2.80;;;23.60;99.90;;;;;;4988257;28;20468;-76
2022/09/12 09:32:12;;;;;;;2.87;2.67;;;23.60;99.90;;;;;;4988628;28;20574;-76
2022/09/12 09:34:40;;;;;;;3.27;2.37;;;23.80;99.90;;;;;;4987767;28;20455;-76
2022/09/12 09:37:16;;;;;;;3.17;2.87;;;23.80;99.90;;;;;;4988835;28;20463;-76
2022/09/12 09:39:54;;;;;;;3.30;2.40;;;23.90;99.90;;;;;;4988657;28;20455;-76
2022/09/12 09:42:32;;;;;;;2.90;2.60;;;24.10;99.90;;;;;;4988699;28;20475;-76
2022/09/12 09:45:02;;;;;;;2.70;2.50;;;24.90;99.90;;;;;;4987763;28;20479;-76
2022/09/12 09:47:29;;;;;;;2.90;2.37;;;25.30;99.90;;;;;;4987463;28;20816;-74
2022/09/12 09:49:56;;;;;;;3.03;2.80;;;25.30;99.90;;;;;;4987386;28;20464;-74
2022/09/12 09:52:28;;;;;;;2.60;2.40;;;25.50;99.90;;;;;;4987532;28;20486;-74
2022/09/12 09:54:59;;;;;;;2.50;2.30;;;25.50;99.90;;;;;;5005960;28;20459;-74
2022/09/12 09:57:40;;;;;;;2.47;2.27;;;25.70;99.90;;;;;;5007310;28;20820;-74
2022/09/12 10:00:29;;;;;;;2.50;2.30;;;25.80;99.90;;;;;;5007149;28;20470;-73
2022/09/12 10:03:03;;;;;;;3.70;2.27;;;26.20;99.90;;;;;;4991188;28;20455;-75
2022/09/12 10:05:32;;;;;;;2.97;2.67;;;26.40;99.90;;;;;;4987548;28;20523;-74
2022/09/12 10:07:59;;;;;;;3.10;2.60;;;26.10;99.90;;;;;;4987952;28;20948;-74
2022/09/12 10:10:27;;;;;;;3.03;2.20;;;25.90;99.90;;;;;;4988056;28;20471;-75
2022/09/12 10:13:08;;;;;;;2.50;2.30;;;26.10;99.90;;;;;;4988433;28;20455;-75
2022/09/12 10:15:37;;;;;;;2.47;2.27;;;26.30;99.90;;;;;;4988091;28;20834;-75
2022/09/12 10:18:04;;;;;;;2.47;2.27;;;26.40;99.90;;;;;;4988229;28;21011;-75
2022/09/12 10:20:33;;;;;;;2.80;2.60;;;26.70;99.90;;;;;;4989300;28;20460;-74
2022/09/12 10:23:01;;;;;;;2.43;2.23;;;26.50;99.90;;;;;;4988206;28;20487;-75
2022/09/12 10:25:30;;;;;;;4.50;2.00;;;26.30;99.90;;;;;;4988274;28;20498;-75
2022/09/12 10:27:59;;;;;;;2.97;2.67;;;26.80;99.90;;;;;;4988512;28;20464;-74
2022/09/12 10:30:27;;;;;;;4.03;2.47;;;27.40;99.90;;;;;;4990282;28;20483;-72
2022/09/12 10:32:59;;;;;;;2.80;2.47;;;27.80;99.90;;;;;;4989346;28;20663;-75
2022/09/12 10:35:32;;;;;;;4.33;2.30;;;27.90;99.90;;;;;;4986723;28;21046;-75
2022/09/12 10:38:01;;;;;;;3.67;2.57;;;28.00;99.90;;;;;;4989562;28;20506;-75
2022/09/12 10:40:33;;;;;;;2.50;2.30;;;28.00;99.90;;;;;;4989123;28;20451;-74
2022/09/12 10:43:01;;;;;;;2.60;2.10;;;27.90;99.90;;;;;;4989186;28;20487;-75
2022/09/12 10:45:30;;;;;;;2.37;2.17;;;27.50;99.90;;;;;;4989127;28;20852;-74
2022/09/12 10:47:59;;;;;;;2.27;2.07;;;27.30;99.90;;;;;;4989674;28;20459;-74
2022/09/12 10:50:29;;;;;;;2.50;2.13;;;27.20;99.90;;;;;;4987828;28;20959;-75
2022/09/12 10:53:14;;;;;;;2.20;2.00;;;27.50;99.90;;;;;;4988597;28;20443;-74
2022/09/12 10:55:57;;;;;;;2.50;2.03;;;27.50;99.90;;;;;;4989570;28;20455;-73
2022/09/12 10:58:42;;;;;;;2.70;2.27;;;27.40;99.90;;;;;;4989206;28;20439;-73
2022/09/12 11:01:20;;;;;;;3.00;1.70;;;27.10;99.90;;;;;;4989733;28;20494;-73
2022/09/12 11:04:03;;;;;;;2.23;2.03;;;27.20;99.90;;;;;;4989148;28;20450;-75
2022/09/12 11:06:39;;;;;;;4.03;2.20;;;27.80;99.90;;;;;;4984401;28;20491;-75
2022/09/12 11:09:12;;;;;;;2.20;2.00;;;28.70;99.90;;;;;;4985322;28;20450;-76
2022/09/12 11:11:51;;;;;;;2.23;2.03;;;28.60;99.90;;;;;;4984637;28;20478;-76
2022/09/12 11:14:36;;;;;;;2.23;2.03;;;28.70;99.90;;;;;;4983884;28;20464;-76
2022/09/12 11:17:13;;;;;;;3.97;2.30;;;28.80;99.90;;;;;;4985054;28;20448;-76
2022/09/12 11:20:03;;;;;;;2.27;2.07;;;28.70;99.90;;;;;;4984723;28;20463;-76
2022/09/12 11:22:45;;;;;;;2.60;2.20;;;29.00;99.90;;;;;;4984893;28;21049;-76
2022/09/12 11:25:21;;;;;;;2.30;2.10;;;29.00;99.90;;;;;;4984873;28;20488;-76
2022/09/12 11:28:20;;;;;;;2.17;2.00;;;29.00;99.90;;;;;;4985458;28;20459;-76
2022/09/12 11:31:02;;;;;;;2.30;2.10;;;29.00;99.90;;;;;;4985280;28;21400;-76
2022/09/12 11:33:42;;;;;;;2.03;1.80;;;29.10;99.90;;;;;;4985377;28;20470;-76
2022/09/12 11:36:20;;;;;;;3.20;2.10;;;28.90;99.90;;;;;;4985565;28;20494;-76
2022/09/12 11:38:52;;;;;;;2.50;2.30;;;28.80;99.90;;;;;;4985728;28;20451;-74
2022/09/12 11:41:24;;;;;;;3.67;2.03;;;28.60;99.90;;;;;;4985768;28;20479;-75
2022/09/12 11:43:57;;;;;;;1.77;1.50;;;29.00;99.90;;;;;;4985261;28;21169;-77
2022/09/12 11:46:32;;;;;;;1.97;1.70;;;29.60;99.90;;;;;;4984781;28;20491;-77
2022/09/12 11:49:05;;;;;;;2.43;1.87;;;29.80;99.90;;;;;;4985475;28;20467;-77
2022/09/12 11:51:37;;;;;;;4.33;2.47;;;29.30;99.90;;;;;;4985180;28;20502;-76
2022/09/12 11:54:13;;;;;;;2.33;2.13;;;29.00;99.90;;;;;;4984827;28;20460;-76
2022/09/12 11:56:45;;;;;;;2.00;1.80;;;29.00;99.90;;;;;;4985157;28;20447;-76
2022/09/12 11:59:20;;;;;;;2.40;2.20;;;29.10;99.90;;;;;;4985171;28;20466;-76
2022/09/12 12:01:51;;;;;;;2.63;1.97;;;29.00;99.90;;;;;;4984965;28;20490;-69
2022/09/12 12:04:25;;;;;;;2.27;1.90;;;28.90;99.90;;;;;;4984954;28;20467;-69
2022/09/12 12:07:00;;;;;;;2.30;2.10;;;28.90;99.90;;;;;;4985734;28;20514;-69
2022/09/12 12:09:29;;;;;;;2.23;2.03;;;28.70;99.90;;;;;;4984434;28;20459;-70
2022/09/12 12:11:57;;;;;;;2.23;2.03;;;28.60;99.90;;;;;;4984986;28;20490;-70
2022/09/12 12:14:31;;;;;;;2.43;1.70;;;28.40;99.90;;;;;;4984756;28;20825;-70
2022/09/12 12:16:58;;;;;;;2.13;1.93;;;28.20;99.90;;;;;;4985874;28;20459;-70
2022/09/12 12:19:33;;;;;;;2.50;2.00;;;28.60;99.90;;;;;;4985868;28;20464;-70
2022/09/12 12:22:15;;;;;;;5.13;2.57;;;29.20;99.90;;;;;;4985720;28;20479;-66
2022/09/12 12:25:08;;;;;;;2.60;1.80;;;29.40;99.90;;;;;;4985046;28;20675;-69
2022/09/12 12:27:54;;;;;;;5.23;1.83;;;29.90;99.90;;;;;;4985441;28;20444;-69
2022/09/12 12:31:03;;;;;;;1.70;1.53;;;29.60;99.90;;;;;;4985600;28;20530;-69
2022/09/12 12:33:53;;;;;;;6.00;1.50;;;29.50;99.90;;;;;;4985701;28;20807;-69
2022/09/12 12:36:33;;;;;;;1.97;1.80;;;29.40;99.90;;;;;;4985223;28;20439;-69
2022/09/12 12:39:48;;;;;;;6.97;1.50;;;29.00;99.90;;;;;;4985810;28;20451;-69
2022/09/12 12:43:03;;;;;;;3.30;1.67;;;28.80;99.90;;;;;;4985819;28;20510;-70
2022/09/12 12:46:02;;;;;;;1.57;1.40;;;28.90;99.90;;;;;;4985232;28;20490;-68
2022/09/12 12:48:34;;;;;;;3.10;1.70;;;29.10;99.90;;;;;;4985721;28;20772;-68
2022/09/12 12:51:32;;;;;;;3.10;1.60;;;28.90;99.90;;;;;;4986111;28;20487;-68
2022/09/12 12:54:01;;;;;;;1.60;1.50;;;28.80;99.90;;;;;;4924720;29;20462;-68
2022/09/12 12:56:34;;;;;;;3.27;1.60;;;29.30;99.90;;;;;;4972696;28;20479;-69
2022/09/12 12:59:04;;;;;;;2.93;1.83;;;29.20;99.90;;;;;;4986306;28;20464;-74
2022/09/12 13:01:39;;;;;;;1.80;1.70;;;29.20;99.90;;;;;;4989147;28;20483;-75
2022/09/12 13:04:16;;;;;;;1.80;1.60;;;29.00;99.90;;;;;;4988561;28;20443;-75
2022/09/12 13:06:45;;;;;;;1.57;1.47;;;28.90;99.90;;;;;;4989106;28;20479;-76
2022/09/12 13:09:21;;;;;;;2.27;1.67;;;28.90;99.90;;;;;;4988050;28;20462;-76
2022/09/12 13:11:58;;;;;;;1.67;1.50;;;28.90;99.90;;;;;;4987391;28;20483;-75
2022/09/12 13:15:04;;;;;;;1.87;1.40;;;28.80;99.90;;;;;;4986345;28;20440;-75
2022/09/12 13:17:36;;;;;;;2.50;1.93;;;28.70;99.90;;;;;;4981223;28;20482;-75
2022/09/12 13:20:08;;;;;;;1.50;1.40;;;28.50;99.90;;;;;;4987418;28;20458;-75
2022/09/12 13:22:42;;;;;;;4.10;1.63;;;28.40;99.90;;;;;;4987704;28;20530;-75
2022/09/12 13:25:23;;;;;;;2.07;1.53;;;28.20;99.90;;;;;;4987765;28;20864;-75
2022/09/12 13:28:01;;;;;;;2.20;1.57;;;28.20;99.90;;;;;;4988209;28;20460;-75
2022/09/12 13:30:30;;;;;;;1.67;1.57;;;28.20;99.90;;;;;;4988351;28;20451;-76
2022/09/12 13:33:02;;;;;;;2.83;1.60;;;28.20;99.90;;;;;;4988047;28;20464;-76
2022/09/12 13:35:40;;;;;;;2.10;1.53;;;28.20;99.90;;;;;;4987312;28;20456;-76
2022/09/12 13:38:16;;;;;;;2.87;1.60;;;28.20;99.90;;;;;;4988148;28;20576;-76
2022/09/12 13:40:55;;;;;;;3.53;1.30;;;28.30;99.90;;;;;;4987992;28;20485;-76
2022/09/12 13:43:30;;;;;;;1.57;1.30;;;28.40;99.90;;;;;;4988206;28;20459;-76
2022/09/12 13:45:57;;;;;;;3.00;1.80;;;28.40;99.90;;;;;;4987297;28;20483;-76
2022/09/12 13:48:25;;;;;;;2.47;1.60;;;28.50;99.90;;;;;;4987945;28;20526;-74
2022/09/12 13:50:55;;;;;;;1.50;1.40;;;28.50;99.90;;;;;;4987714;28;20487;-74
2022/09/12 13:53:24;;;;;;;4.43;2.17;;;28.50;99.90;;;;;;4988202;28;20455;-76
2022/09/12 13:55:53;;;;;;;2.20;1.70;;;28.50;99.90;;;;;;4987042;28;20622;-76
2022/09/12 13:58:22;;;;;;;2.00;1.50;;;28.40;99.90;;;;;;4987450;28;20464;-76
2022/09/12 14:01:02;;;;;;;1.50;1.40;;;28.30;99.90;;;;;;4985699;28;20808;-76
2022/09/12 14:06:19;;;;;;;1.63;1.40;;;28.50;99.80;;;;;;4969789;28;20761;-76
2022/09/12 14:08:47;;;;;;;1.30;1.20;;;28.50;99.90;;;;;;4987703;28;20462;-76
2022/09/12 14:11:24;;;;;;;1.30;1.20;;;28.60;99.00;;;;;;4987570;28;20484;-76
2022/09/12 14:13:51;;;;;;;1.70;1.40;;;28.70;99.90;;;;;;4987548;28;20459;-76
2022/09/12 14:16:20;;;;;;;1.47;1.33;;;28.70;99.90;;;;;;4987008;28;20505;-76
2022/09/12 14:18:50;;;;;;;1.97;1.57;;;28.80;99.20;;;;;;4987878;28;20538;-76
2022/09/12 14:21:30;;;;;;;2.07;1.73;;;28.70;98.60;;;;;;4987494;28;20483;-76
2022/09/12 14:23:58;;;;;;;1.97;1.47;;;28.60;99.90;;;;;;4987362;28;20462;-76
2022/09/12 14:26:27;;;;;;;1.50;1.10;;;28.70;99.90;;;;;;4987334;28;20491;-76
2022/09/12 14:28:54;;;;;;;1.40;1.30;;;28.80;99.90;;;;;;4987583;28;20964;-76
2022/09/12 14:31:23;;;;;;;3.07;1.70;;;28.90;98.10;;;;;;4987560;28;20480;-75
2022/09/12 14:33:53;;;;;;;1.87;1.43;;;28.90;98.70;;;;;;4987493;28;20456;-75
2022/09/12 14:36:26;;;;;;;2.00;1.53;;;29.10;99.40;;;;;;4987066;28;20456;-76
2022/09/12 14:38:56;;;;;;;1.67;1.30;;;29.20;99.70;;;;;;4987631;28;20748;-76
2022/09/12 14:41:27;;;;;;;2.63;1.57;;;29.30;99.30;;;;;;4987602;28;20479;-75
2022/09/12 14:43:58;;;;;;;1.73;1.27;;;29.50;98.60;;;;;;4987531;28;20791;-75
2022/09/12 14:46:30;;;;;;;1.70;1.60;;;29.50;98.30;;;;;;4987188;28;21338;-76
2022/09/12 14:49:02;;;;;;;3.03;1.60;;;29.60;98.00;;;;;;4987406;28;20924;-76
2022/09/12 14:51:33;;;;;;;2.13;1.43;;;29.70;97.10;;;;;;4987383;28;20479;-77
2022/09/12 14:54:00;;;;;;;2.47;1.60;;;29.70;97.90;;;;;;4987052;28;21314;-76
2022/09/12 14:56:42;;;;;;;1.90;1.53;;;29.80;98.20;;;;;;4987251;28;20550;-76
2022/09/12 14:59:28;;;;;;;2.40;2.13;;;29.90;97.80;;;;;;4987231;28;20489;-76
2022/09/12 15:02:24;;;;;;;5.67;1.40;;;30.00;96.90;;;;;;4987227;28;20487;-70
2022/09/12 15:05:15;;;;;;;1.83;1.50;;;30.00;98.20;;;;;;4988960;28;20802;-74
2022/09/12 15:07:45;;;;;;;1.60;1.50;;;30.00;96.90;;;;;;4988922;28;21078;-70
2022/09/12 15:10:20;;;;;;;1.47;1.37;;;30.00;96.50;;;;;;4986937;28;20523;-77
2022/09/12 15:12:47;;;;;;;3.83;1.20;;;30.00;96.50;;;;;;4986893;28;20463;-77
2022/09/12 15:15:16;;;;;;;2.33;1.33;;;30.10;96.20;;;;;;4985840;28;20459;-76
2022/09/12 15:17:44;;;;;;;2.80;1.37;;;30.00;95.50;;;;;;4986891;28;20462;-76
2022/09/12 15:20:13;;;;;;;1.90;1.60;;;30.10;97.10;;;;;;4986867;28;20463;-77
2022/09/12 15:22:42;;;;;;;1.77;1.50;;;30.30;97.20;;;;;;4985903;28;20463;-76
2022/09/12 15:25:12;;;;;;;2.93;1.30;;;30.30;95.70;;;;;;4985992;28;20455;-77
2022/09/12 15:27:39;;;;;;;1.30;1.20;;;30.30;94.20;;;;;;4986301;28;20507;-76
2022/09/12 15:30:07;;;;;;;2.33;1.40;;;30.20;94.80;;;;;;4986699;28;20514;-75
2022/09/12 15:32:34;;;;;;;1.60;1.40;;;30.30;94.70;;;;;;4986334;28;21014;-75
2022/09/12 15:35:01;;;;;;;1.60;1.30;;;30.40;95.60;;;;;;4985336;28;20455;-75
2022/09/12 15:37:29;;;;;;;2.20;1.30;;;30.40;94.00;;;;;;4986153;28;20463;-76
2022/09/12 15:39:56;;;;;;;1.30;1.13;;;30.50;95.30;;;;;;4985911;28;20479;-75
2022/09/12 15:42:28;;;;;;;2.27;1.40;;;30.70;95.40;;;;;;4986175;28;20484;-75
2022/09/12 15:44:55;;;;;;;1.43;1.33;;;30.90;95.30;;;;;;4985550;28;20467;-75
2022/09/12 15:47:22;;;;;;;3.23;1.60;;;31.00;94.50;;;;;;4986000;28;20545;-75
2022/09/12 15:49:49;;;;;;;2.47;1.53;;;31.10;94.70;;;;;;4985918;28;20467;-75
2022/09/12 15:52:16;;;;;;;3.17;1.53;;;31.10;95.20;;;;;;4985917;28;20824;-75
2022/09/12 15:54:44;;;;;;;2.13;1.50;;;31.10;94.20;;;;;;4985605;28;20459;-75
2022/09/12 15:57:11;;;;;;;2.30;1.93;;;31.00;95.00;;;;;;4985949;28;20462;-75
2022/09/12 15:59:38;;;;;;;2.00;1.63;;;30.90;93.70;;;;;;4985863;28;20466;-75
2022/09/12 16:02:05;;;;;;;1.43;1.30;;;31.00;95.10;;;;;;4985354;28;20836;-75
2022/09/12 16:04:32;;;;;;;2.90;1.50;;;30.90;93.70;;;;;;4985430;28;20456;-75
2022/09/12 16:06:58;;;;;;;1.90;1.70;;;30.80;94.90;;;;;;4985827;28;20504;-75
2022/09/12 16:09:25;;;;;;;2.20;2.00;;;30.70;94.70;;;;;;4985718;28;20469;-76
2022/09/12 16:11:53;;;;;;;2.90;2.60;;;30.60;94.20;;;;;;4985878;28;20498;-75
2022/09/12 16:14:20;;;;;;;5.03;1.67;;;30.50;94.80;;;;;;4985340;28;20998;-75
2022/09/12 16:16:53;;;;;;;2.23;2.03;;;30.30;94.90;;;;;;4985980;28;20455;-77
2022/09/12 16:19:21;;;;;;;2.03;1.67;;;30.10;95.20;;;;;;4986310;28;20498;-75
2022/09/12 16:21:48;;;;;;;2.20;1.60;;;30.10;94.80;;;;;;4985692;28;20489;-75
2022/09/12 16:24:14;;;;;;;1.43;1.33;;;30.00;94.30;;;;;;4985368;28;20456;-76
2022/09/12 16:26:43;;;;;;;3.73;1.43;;;29.90;95.30;;;;;;4986223;28;20507;-76
2022/09/12 16:29:12;;;;;;;2.00;1.40;;;29.70;95.90;;;;;;4986418;28;20470;-76
2022/09/12 16:31:39;;;;;;;2.27;1.47;;;29.50;94.50;;;;;;4986239;28;20476;-75
2022/09/12 16:34:06;;;;;;;1.60;1.50;;;29.30;95.30;;;;;;4987802;28;21035;-76
2022/09/12 16:36:33;;;;;;;1.47;1.37;;;29.00;95.40;;;;;;4989541;28;20456;-68
2022/09/12 16:39:00;;;;;;;2.63;1.60;;;28.80;94.90;;;;;;4989491;28;20462;-75
2022/09/12 16:41:26;;;;;;;3.00;1.53;;;28.60;96.70;;;;;;4989841;28;20501;-75
2022/09/12 16:43:54;;;;;;;3.00;2.17;;;28.40;97.10;;;;;;4989908;28;20459;-75
2022/09/12 16:46:24;;;;;;;1.90;1.63;;;28.30;97.20;;;;;;4989037;28;20495;-76
2022/09/12 16:48:52;;;;;;;2.17;1.70;;;28.10;97.20;;;;;;4989481;28;20470;-76
2022/09/12 16:51:22;;;;;;;2.27;2.00;;;28.00;97.60;;;;;;4989369;28;20471;-76
2022/09/12 16:53:49;;;;;;;2.10;1.73;;;27.80;97.00;;;;;;4989563;28;20466;-75
2022/09/12 16:56:17;;;;;;;2.47;1.93;;;27.60;98.50;;;;;;4988657;28;20459;-75
2022/09/12 16:58:44;;;;;;;6.27;2.00;;;27.50;99.20;;;;;;4989477;28;20459;-75
2022/09/12 17:01:13;;;;;;;2.50;1.87;;;27.40;99.90;;;;;;4989588;28;20490;-76
2022/09/12 17:03:41;;;;;;;3.40;1.70;;;27.30;99.90;;;;;;4989273;28;20491;-75
2022/09/12 17:06:10;;;;;;;3.60;1.80;;;27.20;99.90;;;;;;4988532;28;20460;-76
2022/09/12 17:08:39;;;;;;;2.30;2.10;;;27.00;99.10;;;;;;4989712;28;20460;-76
2022/09/12 17:11:08;;;;;;;2.70;2.10;;;26.90;99.90;;;;;;4989105;28;20849;-75